createdAt,value
2023-02-15T00:00:07.055Z,0.00
2023-02-15T00:02:34.398Z,0.01
2023-02-15T00:05:02.255Z,-0.02
2023-02-15T00:07:29.779Z,0.00
2023-02-15T00:09:57.650Z,-0.11
2023-02-15T00:12:25.453Z,-0.08
2023-02-15T00:14:53.004Z,-0.06
2023-02-15T00:17:20.528Z,-0.03
2023-02-15T00:19:48.403Z,-0.07
2023-02-15T00:22:16.231Z,-0.10
2023-02-15T00:24:43.661Z,-0.08
2023-02-15T00:27:11.376Z,-0.08
2023-02-15T00:29:40.367Z,-0.12
2023-02-15T00:32:08.007Z,-0.21
2023-02-15T00:34:35.793Z,-0.22
2023-02-15T00:37:03.580Z,-0.25
2023-02-15T00:39:31.077Z,-0.23
2023-02-15T00:42:00.060Z,-0.25
2023-02-15T00:44:27.643Z,-0.27
2023-02-15T00:46:57.487Z,-0.28
2023-02-15T00:49:25.383Z,-0.27
2023-02-15T00:51:52.952Z,-0.39
2023-02-15T00:54:20.582Z,-0.31
2023-02-15T00:56:48.449Z,-0.34
2023-02-15T00:59:16.087Z,-0.37
2023-02-15T01:01:43.689Z,-0.44
2023-02-15T01:04:13.505Z,-0.36
2023-02-15T01:06:41.009Z,-0.38
2023-02-15T01:09:08.627Z,-0.41
2023-02-15T01:11:38.365Z,-0.40
2023-02-15T01:14:06.501Z,-0.49
2023-02-15T01:16:34.124Z,-0.50
2023-02-15T01:19:03.789Z,-0.46
2023-02-15T01:21:35.504Z,-0.50
2023-02-15T01:24:03.911Z,-0.55
2023-02-15T01:26:31.733Z,-0.60
2023-02-15T01:28:59.511Z,-0.56
2023-02-15T01:31:27.436Z,-0.57
2023-02-15T01:33:55.302Z,-0.64
2023-02-15T01:36:22.868Z,-0.60
2023-02-15T01:38:52.607Z,-0.60
2023-02-15T01:41:27.272Z,-0.62
2023-02-15T01:44:00.460Z,-0.70
2023-02-15T01:46:32.409Z,-0.68
2023-02-15T01:49:10.127Z,-0.69
2023-02-15T01:51:57.497Z,-0.73
2023-02-15T01:54:32.803Z,-0.77
2023-02-15T01:57:07.040Z,-0.71
2023-02-15T01:59:36.329Z,-0.69
2023-02-15T02:02:04.944Z,-0.71
2023-02-15T02:04:37.213Z,-0.73
2023-02-15T02:07:05.621Z,-0.69
2023-02-15T02:09:33.707Z,-0.76
2023-02-15T02:12:01.873Z,-0.74
2023-02-15T02:14:29.830Z,-0.71
2023-02-15T02:17:13.281Z,-0.79
2023-02-15T02:20:09.212Z,-0.78
2023-02-15T02:23:01.338Z,-0.78
2023-02-15T02:26:10.276Z,-0.78
2023-02-15T02:29:09.615Z,-0.85
2023-02-15T02:32:14.918Z,-0.84
2023-02-15T02:35:01.485Z,-0.93
2023-02-15T02:37:47.261Z,-0.93
2023-02-15T02:40:20.428Z,-1.04
2023-02-15T02:42:57.477Z,-1.02
2023-02-15T02:45:42.016Z,-0.96
2023-02-15T02:48:15.205Z,-0.93
2023-02-15T02:50:42.800Z,-1.02
2023-02-15T02:53:12.387Z,-1.09
2023-02-15T02:55:54.041Z,-1.10
2023-02-15T02:58:43.523Z,-1.04
2023-02-15T03:01:19.046Z,-1.05
2023-02-15T03:03:53.623Z,-1.09
2023-02-15T03:06:39.984Z,-1.03
2023-02-15T03:09:15.407Z,-1.06
2023-02-15T03:11:44.854Z,-1.05
2023-02-15T03:14:15.584Z,-1.03
2023-02-15T03:16:44.864Z,-1.04
2023-02-15T03:19:23.517Z,-1.06
2023-02-15T03:21:58.902Z,-1.05
2023-02-15T03:24:33.455Z,-1.09
2023-02-15T03:27:05.161Z,-1.14
2023-02-15T03:29:35.692Z,-1.13
2023-02-15T03:32:06.537Z,-1.10
2023-02-15T03:34:34.681Z,-1.13
2023-02-15T03:37:11.383Z,-1.07
2023-02-15T03:40:19.092Z,-1.10
2023-02-15T03:42:50.423Z,-1.19
2023-02-15T03:45:25.626Z,-1.26
2023-02-15T03:47:53.810Z,-1.31
2023-02-15T03:50:43.741Z,-1.37
2023-02-15T03:53:14.147Z,-1.35
2023-02-15T03:55:42.090Z,-1.31
2023-02-15T03:58:28.504Z,-1.26
2023-02-15T04:01:18.655Z,-1.29
2023-02-15T04:03:53.063Z,-1.29
2023-02-15T04:06:20.634Z,-1.33
2023-02-15T04:09:06.997Z,-1.30
2023-02-15T04:11:34.531Z,-1.40
2023-02-15T04:14:22.326Z,-1.42
2023-02-15T04:16:50.850Z,-1.41
2023-02-15T04:19:37.341Z,-1.40
2023-02-15T04:22:23.433Z,-1.43
2023-02-15T04:25:10.042Z,-1.51
2023-02-15T04:27:38.357Z,-1.45
2023-02-15T04:30:07.526Z,-1.43
2023-02-15T04:32:36.106Z,-1.50
2023-02-15T04:35:04.446Z,-1.46
2023-02-15T04:37:32.845Z,-1.63
2023-02-15T04:40:00.549Z,-1.66
2023-02-15T04:42:28.608Z,-1.55
2023-02-15T04:44:56.403Z,-1.58
2023-02-15T04:47:23.958Z,-1.51
2023-02-15T04:49:51.796Z,-1.53
2023-02-15T04:52:19.671Z,-1.56
2023-02-15T04:54:47.194Z,-1.62
2023-02-15T04:57:14.795Z,-1.60
2023-02-15T04:59:42.609Z,-1.59
2023-02-15T05:02:10.116Z,-1.64
2023-02-15T05:04:37.667Z,-1.63
2023-02-15T05:07:05.522Z,-1.62
2023-02-15T05:09:33.094Z,-1.59
2023-02-15T05:12:00.847Z,-1.58
2023-02-15T05:14:28.748Z,-1.62
2023-02-15T05:16:56.458Z,-1.78
2023-02-15T05:19:25.539Z,-1.78
2023-02-15T05:21:53.292Z,-1.87
2023-02-15T05:24:39.439Z,-1.81
2023-02-15T05:27:25.508Z,-1.73
2023-02-15T05:29:53.173Z,-1.80
2023-02-15T05:32:21.192Z,-1.78
2023-02-15T05:34:48.745Z,-1.82
2023-02-15T05:37:16.254Z,-1.82
2023-02-15T05:39:44.147Z,-1.86
2023-02-15T05:42:11.637Z,-1.84
2023-02-15T05:44:39.177Z,-1.86
2023-02-15T05:47:08.267Z,-1.85
2023-02-15T05:49:36.054Z,-1.94
2023-02-15T05:52:04.625Z,-1.91
2023-02-15T05:54:32.403Z,-1.87
2023-02-15T05:57:00.002Z,-2.03
2023-02-15T05:59:29.690Z,-1.97
2023-02-15T06:01:58.943Z,-1.93
2023-02-15T06:04:26.744Z,-1.97
2023-02-15T06:06:54.467Z,-1.92
2023-02-15T06:09:22.167Z,-1.92
2023-02-15T06:11:49.946Z,-1.72
2023-02-15T06:14:17.472Z,-1.76
2023-02-15T06:16:45.299Z,-1.66
2023-02-15T06:19:13.144Z,-1.66
2023-02-15T06:21:40.714Z,-1.63
2023-02-15T06:24:10.057Z,-1.50
2023-02-15T06:26:37.822Z,-1.59
2023-02-15T06:29:05.575Z,-1.59
2023-02-15T06:31:33.320Z,-1.56
2023-02-15T06:34:04.073Z,-1.53
2023-02-15T06:36:32.794Z,-1.56
2023-02-15T06:39:01.036Z,-1.39
2023-02-15T06:41:28.846Z,-1.35
2023-02-15T06:43:56.482Z,-1.44
2023-02-15T06:46:24.741Z,-1.35
2023-02-15T06:48:52.614Z,-1.28
2023-02-15T06:51:21.660Z,-1.26
2023-02-15T06:53:49.262Z,-1.21
2023-02-15T06:56:17.087Z,-1.11
2023-02-15T06:58:46.957Z,-1.09
2023-02-15T07:01:14.807Z,-1.16
2023-02-15T07:03:42.970Z,-1.06
2023-02-15T07:06:11.680Z,-1.06
2023-02-15T07:08:40.244Z,-0.97
2023-02-15T07:11:27.032Z,-0.96
2023-02-15T07:13:54.545Z,-0.84
2023-02-15T07:16:22.486Z,-0.76
2023-02-15T07:18:50.154Z,-0.71
2023-02-15T07:21:17.762Z,-0.58
2023-02-15T07:23:45.750Z,-0.53
2023-02-15T07:26:13.325Z,-0.43
2023-02-15T07:28:41.220Z,-0.35
2023-02-15T07:31:09.845Z,-0.20
2023-02-15T07:33:37.444Z,-0.12
2023-02-15T07:36:10.531Z,-0.02
2023-02-15T07:38:39.833Z,0.02
2023-02-15T07:41:10.482Z,0.05
2023-02-15T07:43:40.442Z,0.15
2023-02-15T07:46:10.889Z,0.26
2023-02-15T07:48:39.879Z,0.38
2023-02-15T07:51:09.982Z,0.45
2023-02-15T07:53:39.284Z,0.42
2023-02-15T07:56:12.773Z,0.57
2023-02-15T07:58:52.982Z,0.69
2023-02-15T08:01:24.061Z,0.77
2023-02-15T08:03:51.891Z,0.86
2023-02-15T08:06:19.674Z,0.94
2023-02-15T08:08:47.506Z,0.99
2023-02-15T08:11:37.650Z,1.12
2023-02-15T08:14:13.773Z,1.19
2023-02-15T08:16:43.438Z,1.27
2023-02-15T08:19:14.068Z,1.37
2023-02-15T08:21:44.848Z,1.37
2023-02-15T08:24:16.100Z,1.51
2023-02-15T08:26:46.314Z,1.65
2023-02-15T08:29:15.314Z,1.73
2023-02-15T08:31:43.383Z,1.84
2023-02-15T08:34:14.348Z,1.93
2023-02-15T08:36:42.412Z,2.00
2023-02-15T08:39:10.266Z,2.03
2023-02-15T08:41:39.585Z,2.20
2023-02-15T08:44:08.786Z,2.26
2023-02-15T08:46:41.384Z,2.36
2023-02-15T08:49:16.376Z,2.50
2023-02-15T08:51:43.946Z,2.60
2023-02-15T08:54:14.534Z,2.65
2023-02-15T08:56:42.971Z,2.84
2023-02-15T08:59:16.227Z,2.87
2023-02-15T09:01:44.678Z,2.91
2023-02-15T09:04:14.110Z,3.01
2023-02-15T09:06:42.540Z,3.20
2023-02-15T09:09:11.186Z,3.25
2023-02-15T09:11:43.980Z,3.37
2023-02-15T09:14:17.648Z,3.36
2023-02-15T09:16:50.900Z,3.44
2023-02-15T09:19:20.842Z,3.71
2023-02-15T09:21:49.470Z,3.83
2023-02-15T09:24:17.792Z,3.93
2023-02-15T09:26:48.109Z,4.08
2023-02-15T09:29:16.739Z,4.09
2023-02-15T09:31:46.640Z,4.13
2023-02-15T09:34:17.644Z,4.35
2023-02-15T09:36:45.409Z,4.62
2023-02-15T09:39:13.949Z,4.74
2023-02-15T09:42:04.887Z,4.80
2023-02-15T09:44:32.346Z,4.88
2023-02-15T09:47:18.097Z,4.93
2023-02-15T09:50:09.958Z,5.09
2023-02-15T09:52:59.648Z,5.16
2023-02-15T09:55:29.941Z,5.41
2023-02-15T09:57:57.777Z,5.33
2023-02-15T10:00:31.978Z,5.31
2023-02-15T10:03:44.879Z,5.70
2023-02-15T10:06:35.879Z,5.65
2023-02-15T10:09:09.915Z,5.84
2023-02-15T10:11:47.719Z,5.74
2023-02-15T10:14:38.888Z,6.02
2023-02-15T10:17:19.574Z,6.22
2023-02-15T10:20:11.973Z,6.17
2023-02-15T10:23:21.911Z,6.54
2023-02-15T10:25:52.396Z,6.49
2023-02-15T10:28:24.970Z,6.65
2023-02-15T10:30:57.139Z,6.55
2023-02-15T10:33:33.937Z,6.62
2023-02-15T10:36:07.486Z,6.72
2023-02-15T10:38:42.155Z,6.78
2023-02-15T10:41:23.412Z,7.02
2023-02-15T10:44:01.302Z,7.02
2023-02-15T10:46:56.479Z,7.08
2023-02-15T10:49:36.146Z,7.28
2023-02-15T10:52:15.789Z,7.35
2023-02-15T10:54:52.152Z,7.55
2023-02-15T10:57:37.775Z,7.47
2023-02-15T11:00:20.332Z,7.63
2023-02-15T11:03:07.002Z,7.83
2023-02-15T11:05:50.243Z,7.72
2023-02-15T11:08:18.993Z,7.88
2023-02-15T11:11:02.094Z,7.86
2023-02-15T11:13:35.384Z,8.05
2023-02-15T11:16:18.992Z,8.12
2023-02-15T11:19:01.818Z,8.16
2023-02-15T11:21:40.216Z,8.34
2023-02-15T11:24:14.134Z,8.44
2023-02-15T11:26:56.112Z,8.70
2023-02-15T11:29:29.533Z,8.35
2023-02-15T11:32:33.432Z,8.30
2023-02-15T11:35:23.978Z,8.37
2023-02-15T11:38:02.195Z,8.54
2023-02-15T11:40:52.997Z,8.66
2023-02-15T11:43:41.277Z,8.81
2023-02-15T11:46:12.497Z,9.05
2023-02-15T11:48:40.969Z,9.10
2023-02-15T11:51:13.878Z,8.84
2023-02-15T11:53:46.743Z,8.96
2023-02-15T11:56:22.135Z,9.05
2023-02-15T11:59:13.038Z,9.14
2023-02-15T12:01:46.715Z,9.06
2023-02-15T12:04:23.866Z,9.22
2023-02-15T12:07:02.265Z,9.31
2023-02-15T12:10:13.739Z,9.06
2023-02-15T12:12:42.458Z,9.27
2023-02-15T12:15:14.215Z,9.20
2023-02-15T12:17:50.520Z,9.22
2023-02-15T12:20:18.322Z,9.12
2023-02-15T12:22:55.044Z,9.15
2023-02-15T12:25:33.692Z,9.26
2023-02-15T12:28:01.749Z,9.24
2023-02-15T12:30:33.093Z,9.39
2023-02-15T12:33:16.951Z,9.60
2023-02-15T12:35:45.361Z,9.65
2023-02-15T12:38:12.920Z,9.78
2023-02-15T12:40:41.280Z,9.78
2023-02-15T12:43:27.471Z,9.72
2023-02-15T12:46:15.506Z,9.94
2023-02-15T12:48:43.386Z,9.79
2023-02-15T12:51:16.233Z,9.64
2023-02-15T12:53:45.262Z,9.77
2023-02-15T12:56:12.935Z,9.82
2023-02-15T12:58:42.249Z,9.89
2023-02-15T13:01:11.326Z,9.89
2023-02-15T13:03:51.671Z,9.67
2023-02-15T13:06:19.980Z,9.71
2023-02-15T13:08:51.185Z,9.80
2023-02-15T13:11:26.059Z,9.99
2023-02-15T13:13:59.530Z,10.12
2023-02-15T13:16:33.140Z,10.04
2023-02-15T13:19:13.010Z,9.98
2023-02-15T13:21:45.313Z,10.15
2023-02-15T13:24:20.558Z,10.23
2023-02-15T13:26:49.067Z,10.23
2023-02-15T13:29:24.899Z,10.32
2023-02-15T13:31:54.490Z,10.38
2023-02-15T13:34:26.653Z,10.29
2023-02-15T13:37:17.670Z,10.34
2023-02-15T13:39:52.425Z,10.37
2023-02-15T13:42:33.995Z,10.28
2023-02-15T13:45:14.469Z,10.02
2023-02-15T13:48:03.525Z,10.12
2023-02-15T13:50:53.046Z,10.05
2023-02-15T13:53:39.297Z,9.89
2023-02-15T13:56:22.543Z,10.06
2023-02-15T13:59:19.746Z,10.09
2023-02-15T14:01:59.276Z,9.85
2023-02-15T14:04:33.143Z,9.69
2023-02-15T14:07:15.900Z,9.83
2023-02-15T14:10:14.645Z,9.83
2023-02-15T14:13:08.551Z,9.75
2023-02-15T14:15:46.531Z,9.58
2023-02-15T14:18:35.874Z,9.57
2023-02-15T14:21:26.884Z,9.40
2023-02-15T14:24:21.688Z,9.39
2023-02-15T14:27:20.685Z,9.34
2023-02-15T14:29:59.068Z,9.35
2023-02-15T14:32:41.059Z,9.35
2023-02-15T14:35:17.944Z,9.24
2023-02-15T14:38:03.922Z,9.15
2023-02-15T14:41:02.709Z,9.17
2023-02-15T14:43:34.088Z,9.14
2023-02-15T14:46:11.170Z,9.16
2023-02-15T14:49:18.069Z,9.14
2023-02-15T14:51:48.690Z,9.14
2023-02-15T14:54:22.500Z,9.09
2023-02-15T14:57:02.139Z,9.06
2023-02-15T14:59:51.154Z,9.01
2023-02-15T15:02:25.920Z,8.98
2023-02-15T15:05:08.450Z,8.93
2023-02-15T15:07:56.160Z,8.93
2023-02-15T15:10:23.844Z,8.83
2023-02-15T15:12:55.161Z,8.80
2023-02-15T15:15:28.624Z,8.72
2023-02-15T15:18:09.542Z,8.71
2023-02-15T15:20:51.746Z,8.66
2023-02-15T15:23:20.010Z,8.59
2023-02-15T15:25:49.208Z,8.45
2023-02-15T15:28:34.346Z,8.38
2023-02-15T15:31:31.088Z,8.32
2023-02-15T15:34:15.334Z,8.27
2023-02-15T15:37:04.133Z,8.12
2023-02-15T15:39:37.654Z,7.99
2023-02-15T15:42:35.075Z,7.90
2023-02-15T15:45:32.873Z,7.74
2023-02-15T15:48:29.176Z,7.60
2023-02-15T15:51:20.717Z,7.45
2023-02-15T15:53:54.059Z,7.39
2023-02-15T15:56:25.992Z,7.31
2023-02-15T15:58:56.828Z,7.27
2023-02-15T16:01:32.637Z,7.16
2023-02-15T16:04:01.005Z,7.10
2023-02-15T16:06:29.510Z,6.96
2023-02-15T16:08:57.386Z,6.93
2023-02-15T16:11:27.150Z,6.83
2023-02-15T16:13:54.921Z,6.69
2023-02-15T16:16:25.194Z,6.57
2023-02-15T16:18:53.634Z,6.46
2023-02-15T16:21:33.757Z,6.35
2023-02-15T16:24:23.845Z,6.24
2023-02-15T16:27:04.633Z,6.09
2023-02-15T16:29:34.900Z,6.01
2023-02-15T16:32:15.704Z,5.98
2023-02-15T16:34:53.277Z,5.91
2023-02-15T16:37:24.448Z,5.82
2023-02-15T16:39:52.671Z,5.76
2023-02-15T16:42:20.496Z,5.63
2023-02-15T16:45:09.714Z,5.58
2023-02-15T16:47:44.491Z,5.51
2023-02-15T16:50:31.348Z,5.43
2023-02-15T16:52:59.832Z,5.37
2023-02-15T16:55:31.619Z,5.33
2023-02-15T16:58:02.855Z,5.18
2023-02-15T17:00:37.507Z,5.13
2023-02-15T17:03:14.748Z,5.05
2023-02-15T17:05:48.069Z,4.97
2023-02-15T17:08:19.533Z,4.86
2023-02-15T17:11:05.060Z,4.84
2023-02-15T17:13:33.567Z,4.77
2023-02-15T17:16:01.636Z,4.61
2023-02-15T17:18:31.467Z,4.53
2023-02-15T17:21:11.528Z,4.46
2023-02-15T17:23:47.925Z,4.38
2023-02-15T17:26:17.470Z,4.24
2023-02-15T17:29:30.311Z,4.26
2023-02-15T17:31:59.107Z,4.19
2023-02-15T17:34:45.242Z,4.13
2023-02-15T17:37:15.204Z,4.11
2023-02-15T17:39:43.281Z,4.10
2023-02-15T17:42:10.809Z,4.04
2023-02-15T17:44:38.808Z,4.01
2023-02-15T17:47:06.760Z,3.94
2023-02-15T17:49:35.772Z,3.86
2023-02-15T17:52:04.450Z,3.76
2023-02-15T17:54:51.052Z,3.67
2023-02-15T17:57:19.610Z,3.59
2023-02-15T18:00:06.037Z,3.55
2023-02-15T18:02:58.853Z,3.52
2023-02-15T18:05:46.782Z,3.47
2023-02-15T18:08:35.750Z,3.33
2023-02-15T18:11:23.004Z,3.10
2023-02-15T18:13:50.812Z,3.12
2023-02-15T18:16:23.305Z,3.07
2023-02-15T18:18:52.249Z,3.04
2023-02-15T18:21:20.552Z,2.95
2023-02-15T18:23:48.312Z,2.88
2023-02-15T18:26:21.543Z,2.80
2023-02-15T18:28:51.156Z,2.70
2023-02-15T18:31:19.533Z,2.68
2023-02-15T18:33:58.758Z,2.65
2023-02-15T18:36:43.773Z,2.64
2023-02-15T18:39:26.480Z,2.59
2023-02-15T18:41:54.980Z,2.55
2023-02-15T18:44:22.526Z,2.54
2023-02-15T18:46:50.373Z,2.47
2023-02-15T18:49:18.741Z,2.42
2023-02-15T18:51:47.005Z,2.44
2023-02-15T18:54:25.028Z,2.45
2023-02-15T18:56:57.898Z,2.42
2023-02-15T18:59:27.312Z,2.33
2023-02-15T19:01:55.760Z,2.24
2023-02-15T19:04:25.691Z,2.14
2023-02-15T19:06:54.219Z,2.06
2023-02-15T19:09:24.280Z,2.00
2023-02-15T19:11:54.317Z,1.92
2023-02-15T19:14:29.236Z,1.88
2023-02-15T19:16:58.975Z,1.86
2023-02-15T19:19:27.691Z,1.83
2023-02-15T19:21:56.003Z,1.71
2023-02-15T19:24:33.905Z,1.61
2023-02-15T19:27:02.687Z,1.54
2023-02-15T19:29:30.915Z,1.59
2023-02-15T19:31:59.294Z,1.61
2023-02-15T19:34:27.796Z,1.59
2023-02-15T19:36:56.705Z,1.54
2023-02-15T19:39:30.746Z,1.53
2023-02-15T19:41:58.885Z,1.51
2023-02-15T19:44:27.402Z,1.44
2023-02-15T19:46:55.766Z,1.38
2023-02-15T19:49:23.919Z,1.38
2023-02-15T19:51:51.837Z,1.32
2023-02-15T19:54:31.294Z,1.28
2023-02-15T19:56:59.967Z,1.12
2023-02-15T19:59:33.026Z,1.10
2023-02-15T20:02:01.240Z,0.91
2023-02-15T20:04:29.375Z,0.89
2023-02-15T20:07:00.894Z,0.85
2023-02-15T20:09:35.592Z,0.80
2023-02-15T20:12:03.739Z,0.77
2023-02-15T20:14:32.023Z,0.85
2023-02-15T20:16:59.788Z,0.84
2023-02-15T20:19:27.648Z,0.80
2023-02-15T20:21:56.757Z,0.74
2023-02-15T20:24:27.010Z,0.61
2023-02-15T20:26:55.109Z,0.58
2023-02-15T20:29:22.968Z,0.58
2023-02-15T20:31:53.404Z,0.53
2023-02-15T20:34:23.404Z,0.50
2023-02-15T20:36:52.510Z,0.49
2023-02-15T20:39:20.774Z,0.43
2023-02-15T20:41:49.451Z,0.38
2023-02-15T20:44:27.266Z,0.37
2023-02-15T20:46:57.187Z,0.34
2023-02-15T20:49:27.378Z,0.32
2023-02-15T20:51:56.592Z,0.31
2023-02-15T20:54:26.883Z,0.30
2023-02-15T20:56:55.010Z,0.34
2023-02-15T20:59:28.392Z,0.32
2023-02-15T21:02:15.993Z,0.31
2023-02-15T21:04:43.792Z,0.18
2023-02-15T21:07:17.055Z,0.21
2023-02-15T21:09:46.233Z,0.23
2023-02-15T21:12:17.046Z,0.24
2023-02-15T21:14:45.061Z,0.21
2023-02-15T21:17:16.636Z,0.12
2023-02-15T21:19:44.780Z,0.04
2023-02-15T21:22:14.157Z,-0.04
2023-02-15T21:24:50.409Z,-0.05
2023-02-15T21:27:18.658Z,-0.09
2023-02-15T21:29:47.265Z,-0.15
2023-02-15T21:32:15.296Z,-0.06
2023-02-15T21:34:43.457Z,-0.11
2023-02-15T21:37:32.669Z,-0.10
2023-02-15T21:40:06.974Z,-0.12
2023-02-15T21:42:53.090Z,-0.18
2023-02-15T21:45:39.654Z,-0.24
2023-02-15T21:48:08.785Z,-0.26
2023-02-15T21:50:55.315Z,-0.32
2023-02-15T21:53:34.688Z,-0.31
2023-02-15T21:56:04.987Z,-0.27
2023-02-15T21:58:35.768Z,-0.20
2023-02-15T22:01:04.211Z,-0.23
2023-02-15T22:03:37.407Z,-0.17
2023-02-15T22:06:05.784Z,-0.20
2023-02-15T22:08:34.177Z,-0.30
2023-02-15T22:11:02.204Z,-0.26
2023-02-15T22:13:32.041Z,-0.28
2023-02-15T22:15:59.945Z,-0.42
2023-02-15T22:18:33.216Z,-0.43
2023-02-15T22:21:02.967Z,-0.52
2023-02-15T22:23:31.124Z,-0.55
2023-02-15T22:26:03.190Z,-0.57
2023-02-15T22:28:33.850Z,-0.65
2023-02-15T22:31:03.233Z,-0.62
2023-02-15T22:33:33.710Z,-0.53
2023-02-15T22:36:01.706Z,-0.53
2023-02-15T22:38:29.556Z,-0.46
2023-02-15T22:41:03.233Z,-0.47
2023-02-15T22:43:37.840Z,-0.45
2023-02-15T22:46:08.776Z,-0.55
2023-02-15T22:48:36.369Z,-0.66
2023-02-15T22:51:04.388Z,-0.80
2023-02-15T22:53:32.434Z,-1.02
2023-02-15T22:56:04.699Z,-0.92
2023-02-15T22:58:32.906Z,-1.03
2023-02-15T23:01:02.007Z,-1.10
2023-02-15T23:03:31.320Z,-1.11
2023-02-15T23:05:59.164Z,-1.03
2023-02-15T23:08:26.690Z,-1.13
2023-02-15T23:10:56.334Z,-1.21
2023-02-15T23:13:29.560Z,-1.26
2023-02-15T23:15:59.623Z,-1.29
2023-02-15T23:18:37.262Z,-1.30
2023-02-15T23:21:20.320Z,-1.30
2023-02-15T23:23:54.461Z,-1.28
2023-02-15T23:26:24.882Z,-1.28
2023-02-15T23:28:53.537Z,-1.20
2023-02-15T23:31:31.707Z,-1.14
2023-02-15T23:34:12.806Z,-1.15
2023-02-15T23:36:40.572Z,-1.16
2023-02-15T23:39:37.738Z,-1.14
2023-02-15T23:42:10.007Z,-1.14
2023-02-15T23:44:38.519Z,-1.20
2023-02-15T23:47:07.148Z,-1.18
2023-02-15T23:49:34.678Z,-1.31
2023-02-15T23:52:02.701Z,-1.27
2023-02-15T23:54:30.250Z,-1.28
2023-02-15T23:57:00.446Z,-1.30
2023-02-15T23:59:29.949Z,-1.39
